createdAt,value
2023-03-29T05:17:48.955Z,101191.09
2023-03-29T05:22:51.153Z,101187.59
2023-03-29T05:27:53.207Z,101172.56
2023-03-29T05:32:55.369Z,101182.19
2023-03-29T05:37:58.244Z,101170.84
2023-03-29T05:43:02.498Z,101162.44
2023-03-29T05:48:05.466Z,101173.25
2023-03-29T05:53:08.041Z,101182.19
2023-03-29T05:58:12.302Z,101188.16
2023-03-29T06:03:21.534Z,101197.59
2023-03-29T06:08:24.555Z,101197.69
2023-03-29T06:13:27.914Z,101189.44
2023-03-29T06:18:30.296Z,101201.72
2023-03-29T06:23:32.468Z,101201.19
2023-03-29T06:28:34.592Z,101192.63
2023-03-29T06:33:38.113Z,101202.63
2023-03-29T06:38:40.328Z,101221.38
2023-03-29T06:43:42.545Z,101224.47
2023-03-29T06:48:45.084Z,101225.94
2023-03-29T06:53:47.147Z,101229.00
2023-03-29T06:58:51.573Z,101231.50
2023-03-29T07:03:54.421Z,101216.13
2023-03-29T07:08:59.785Z,101228.31
2023-03-29T07:14:05.380Z,101225.81
2023-03-29T07:19:09.201Z,101242.06
2023-03-29T07:24:11.449Z,101256.53
2023-03-29T07:29:13.635Z,101260.16
2023-03-29T07:34:17.497Z,101259.38
2023-03-29T07:39:20.444Z,101252.72
2023-03-29T07:44:23.426Z,101265.19
2023-03-29T07:49:25.798Z,101267.41
2023-03-29T07:54:27.939Z,101252.75
2023-03-29T07:59:30.354Z,101247.50
2023-03-29T08:04:32.575Z,101275.69
2023-03-29T08:09:34.799Z,101270.31
2023-03-29T08:14:37.082Z,101256.28
2023-03-29T08:19:39.183Z,101258.72
2023-03-29T08:24:41.655Z,101252.94
2023-03-29T08:29:43.781Z,101263.41
2023-03-29T08:34:46.822Z,101243.53
2023-03-29T08:39:48.886Z,101239.44
2023-03-29T08:45:11.542Z,101256.84
2023-03-29T08:50:14.703Z,101250.19
2023-03-29T08:55:27.010Z,101233.47
2023-03-29T09:00:42.915Z,101233.37
2023-03-29T09:05:49.009Z,101242.84
2023-03-29T09:11:07.105Z,101232.38
2023-03-29T09:16:18.279Z,101239.91
2023-03-29T09:21:29.857Z,101223.44
2023-03-29T09:26:41.828Z,101212.78
2023-03-29T09:31:44.817Z,101215.25
2023-03-29T09:36:56.769Z,101200.94
2023-03-29T09:42:05.428Z,101194.62
2023-03-29T09:47:55.225Z,101203.50
2023-03-29T09:52:57.470Z,101199.25
2023-03-29T09:58:12.908Z,101179.31
2023-03-29T10:03:26.237Z,101187.34
2023-03-29T10:08:31.337Z,101164.62
2023-03-29T10:13:35.625Z,101164.56
2023-03-29T10:18:42.761Z,101174.84
2023-03-29T10:23:44.931Z,101155.69
2023-03-29T10:28:47.132Z,101159.03
2023-03-29T10:33:57.397Z,101164.06
2023-03-29T10:39:05.117Z,101130.81
2023-03-29T10:44:26.540Z,101143.53
2023-03-29T10:49:28.700Z,101125.91
2023-03-29T10:54:31.229Z,101136.81
2023-03-29T10:59:47.702Z,101131.56
2023-03-29T11:04:56.707Z,101114.75
2023-03-29T11:10:04.827Z,101117.75
2023-03-29T11:15:17.762Z,101109.19
2023-03-29T11:20:31.131Z,101109.97
2023-03-29T11:26:05.024Z,101102.94
2023-03-29T11:31:21.361Z,101113.25
2023-03-29T11:36:41.820Z,101104.50
2023-03-29T11:41:48.140Z,101099.56
2023-03-29T11:46:59.515Z,101091.53
2023-03-29T11:52:17.627Z,101084.69
2023-03-29T11:57:31.368Z,101073.41
2023-03-29T12:02:46.288Z,101075.47
2023-03-29T12:08:01.518Z,101067.97
2023-03-29T12:13:15.066Z,101064.13
2023-03-29T12:18:30.346Z,101062.94
2023-03-29T12:23:33.520Z,101054.75
2023-03-29T12:28:50.352Z,101048.97
2023-03-29T12:34:14.756Z,101050.19
2023-03-29T12:39:19.867Z,101023.59
2023-03-29T12:44:23.936Z,101018.97
2023-03-29T12:49:35.952Z,101021.38
2023-03-29T12:54:38.071Z,101007.78
2023-03-29T12:59:46.174Z,101007.72
2023-03-29T13:04:55.321Z,101009.87
2023-03-29T13:10:03.414Z,101009.50
2023-03-29T13:15:21.542Z,101027.28
2023-03-29T13:20:23.590Z,101005.19
2023-03-29T13:25:45.106Z,100999.81
2023-03-29T13:31:02.572Z,100987.47
2023-03-29T13:36:16.528Z,100997.41
2023-03-29T13:41:31.827Z,100966.28
2023-03-29T13:46:37.561Z,100991.28
2023-03-29T13:51:42.867Z,100984.62
2023-03-29T13:57:11.082Z,100969.03
2023-03-29T14:02:53.767Z,100954.31
2023-03-29T14:07:56.755Z,100956.19
2023-03-29T14:13:04.479Z,100953.81
2023-03-29T14:18:12.079Z,100950.28
2023-03-29T14:23:20.126Z,100940.97
2023-03-29T14:28:27.954Z,100937.72
2023-03-29T14:33:34.558Z,100944.00
2023-03-29T14:38:37.849Z,100922.47
2023-03-29T14:43:40.775Z,100926.28
2023-03-29T14:48:44.048Z,100921.22
2023-03-29T14:53:48.200Z,100921.66
2023-03-29T14:58:54.910Z,100915.19
2023-03-29T15:04:03.314Z,100900.78
2023-03-29T15:09:06.957Z,100908.75
2023-03-29T15:14:15.619Z,100903.56
2023-03-29T15:19:21.370Z,100899.00
2023-03-29T15:24:29.394Z,100918.13
2023-03-29T15:29:40.718Z,100917.69
2023-03-29T15:34:42.769Z,100900.66
2023-03-29T15:39:44.821Z,100905.88
2023-03-29T15:44:46.924Z,100891.19
2023-03-29T15:49:49.250Z,100895.72
2023-03-29T15:54:51.509Z,100874.59
2023-03-29T15:59:53.662Z,100884.16
2023-03-29T16:04:55.918Z,100868.97
2023-03-29T16:09:58.088Z,100863.91
2023-03-29T16:15:00.366Z,100875.34
2023-03-29T16:20:04.865Z,100853.56
2023-03-29T16:25:13.496Z,100862.66
2023-03-29T16:30:16.087Z,100854.19
2023-03-29T16:35:27.791Z,100867.03
2023-03-29T16:40:30.035Z,100859.59
2023-03-29T16:45:32.200Z,100856.16
2023-03-29T16:50:34.450Z,100838.62
2023-03-29T16:55:38.139Z,100857.25
2023-03-29T17:00:40.956Z,100845.25
2023-03-29T17:05:53.071Z,100844.06
2023-03-29T17:10:55.687Z,100860.78
2023-03-29T17:15:57.944Z,100854.53
2023-03-29T17:21:00.197Z,100842.16
2023-03-29T17:26:02.586Z,100847.00
2023-03-29T17:31:09.566Z,100852.84
2023-03-29T17:36:11.941Z,100853.19
2023-03-29T17:41:14.190Z,100854.84
2023-03-29T17:46:18.130Z,100860.37
2023-03-29T17:51:20.797Z,100859.19
2023-03-29T17:56:23.332Z,100877.00
2023-03-29T18:01:25.613Z,100873.81
2023-03-29T18:06:27.877Z,100881.28
2023-03-29T18:11:30.071Z,100878.38
2023-03-29T18:16:32.262Z,100886.84
2023-03-29T18:21:34.525Z,100889.28
2023-03-29T18:26:36.609Z,100889.44
2023-03-29T18:31:38.763Z,100908.19
2023-03-29T18:36:40.974Z,100913.47
2023-03-29T18:41:43.090Z,100911.50
2023-03-29T18:46:45.514Z,100918.19
2023-03-29T18:51:48.338Z,100919.88
2023-03-29T18:56:50.462Z,100890.25
2023-03-29T19:01:52.824Z,100910.41
2023-03-29T19:06:56.063Z,100898.22
2023-03-29T19:11:58.168Z,100892.75
2023-03-29T19:17:00.405Z,100891.47
2023-03-29T19:22:02.544Z,100902.78
2023-03-29T19:27:04.998Z,100900.06
2023-03-29T19:32:07.108Z,100898.59
2023-03-29T19:37:09.315Z,100914.59
2023-03-29T19:42:11.554Z,100907.69
2023-03-29T19:47:13.667Z,100900.31
2023-03-29T19:52:15.772Z,100908.81
2023-03-29T19:57:17.941Z,100894.50
2023-03-29T20:02:20.080Z,100905.50
2023-03-29T20:07:22.122Z,100911.69
2023-03-29T20:12:24.232Z,100891.91
2023-03-29T20:17:26.427Z,100906.19
2023-03-29T20:22:31.156Z,100885.53
2023-03-29T20:27:34.130Z,100897.41
2023-03-29T20:32:36.736Z,100895.66
2023-03-29T20:37:38.886Z,100879.06
